createdAt,value
2022-08-20T00:01:08.887Z,0.50
2022-08-20T00:03:41.099Z,2.35
2022-08-20T00:06:21.034Z,1.65
2022-08-20T00:08:48.228Z,1.38
2022-08-20T00:11:18.906Z,3.67
2022-08-20T00:13:53.410Z,4.25
2022-08-20T00:16:22.564Z,1.27
2022-08-20T00:18:50.132Z,2.85
2022-08-20T00:21:19.174Z,3.22
2022-08-20T00:23:48.590Z,2.78
2022-08-20T00:26:16.476Z,2.10
2022-08-20T00:28:43.313Z,3.50
2022-08-20T00:31:12.827Z,2.53
2022-08-20T00:33:39.910Z,2.40
2022-08-20T00:36:09.481Z,2.95
2022-08-20T00:38:40.658Z,0.95
2022-08-20T00:41:11.661Z,2.40
2022-08-20T00:43:45.426Z,1.48
2022-08-20T00:46:19.483Z,2.80
2022-08-20T00:48:48.964Z,2.85
2022-08-20T00:51:27.324Z,2.28
2022-08-20T00:54:02.351Z,2.83
2022-08-20T00:56:33.462Z,1.88
2022-08-20T00:59:02.103Z,2.05
2022-08-20T01:01:29.518Z,2.15
2022-08-20T01:03:56.745Z,3.33
2022-08-20T01:06:25.223Z,2.90
2022-08-20T01:08:52.703Z,4.82
2022-08-20T01:11:22.647Z,3.13
2022-08-20T01:13:50.973Z,3.28
2022-08-20T01:16:26.693Z,2.13
2022-08-20T01:18:57.650Z,1.80
2022-08-20T01:21:28.565Z,2.90
2022-08-20T01:24:21.146Z,2.70
2022-08-20T01:26:49.307Z,3.90
2022-08-20T01:29:20.501Z,2.28
2022-08-20T01:31:47.212Z,1.67
2022-08-20T01:34:16.956Z,1.65
2022-08-20T01:36:50.500Z,2.50
2022-08-20T01:39:27.193Z,3.17
2022-08-20T01:42:15.466Z,1.42
2022-08-20T01:44:44.695Z,3.78
2022-08-20T01:47:21.694Z,2.30
2022-08-20T01:49:56.859Z,2.80
2022-08-20T01:52:51.835Z,3.20
2022-08-20T01:55:19.010Z,2.72
2022-08-20T01:57:48.466Z,2.58
2022-08-20T02:00:20.097Z,1.27
2022-08-20T02:02:48.252Z,4.32
2022-08-20T02:05:15.550Z,2.55
2022-08-20T02:07:42.499Z,2.42
2022-08-20T02:10:11.532Z,2.25
2022-08-20T02:12:39.968Z,3.85
2022-08-20T02:15:11.079Z,1.30
2022-08-20T02:17:39.133Z,3.92
2022-08-20T02:20:19.361Z,0.43
2022-08-20T02:22:55.703Z,1.98
2022-08-20T02:25:24.785Z,1.50
2022-08-20T02:27:54.248Z,2.17
2022-08-20T02:30:29.296Z,0.85
2022-08-20T02:32:57.913Z,2.55
2022-08-20T02:35:25.189Z,2.35
2022-08-20T02:40:27.149Z,2.72
2022-08-20T02:42:59.537Z,2.63
2022-08-20T02:45:26.223Z,2.25
2022-08-20T02:47:55.570Z,2.65
2022-08-20T02:50:24.398Z,3.83
2022-08-20T02:52:52.329Z,1.38
2022-08-20T02:55:26.855Z,1.95
2022-08-20T02:58:00.437Z,1.13
2022-08-20T03:00:38.170Z,2.88
2022-08-20T03:03:10.498Z,1.40
2022-08-20T03:05:40.106Z,2.92
2022-08-20T03:08:09.616Z,6.70
2022-08-20T03:10:38.487Z,2.13
2022-08-20T03:13:07.205Z,2.40
2022-08-20T03:15:34.642Z,4.75
2022-08-20T03:20:28.384Z,1.73
2022-08-20T03:22:56.122Z,2.20
2022-08-20T03:25:23.590Z,2.60
2022-08-20T03:27:54.815Z,2.10
2022-08-20T03:30:25.157Z,2.88
2022-08-20T03:32:52.430Z,1.73
2022-08-20T03:35:20.978Z,1.65
2022-08-20T03:37:48.567Z,2.58
2022-08-20T03:40:20.219Z,3.72
2022-08-20T03:42:46.958Z,1.98
2022-08-20T03:45:17.199Z,2.90
2022-08-20T03:47:47.483Z,5.53
2022-08-20T03:50:23.082Z,3.42
2022-08-20T03:52:54.859Z,2.53
2022-08-20T03:55:24.676Z,3.67
2022-08-20T03:57:57.566Z,3.22
2022-08-20T04:00:47.360Z,3.80
2022-08-20T04:03:14.055Z,6.28
2022-08-20T04:05:41.670Z,3.38
2022-08-20T04:08:15.968Z,1.25
2022-08-20T04:10:43.276Z,2.35
2022-08-20T04:13:10.713Z,2.28
2022-08-20T04:15:37.616Z,1.58
2022-08-20T04:18:09.943Z,1.48
2022-08-20T04:20:38.780Z,2.28
2022-08-20T04:23:05.765Z,2.63
2022-08-20T04:25:35.816Z,3.70
2022-08-20T04:28:05.482Z,2.28
2022-08-20T04:30:33.106Z,1.35
2022-08-20T04:33:00.125Z,2.20
2022-08-20T04:35:26.950Z,2.75
2022-08-20T04:38:14.255Z,1.17
2022-08-20T04:40:58.072Z,1.15
2022-08-20T04:43:31.172Z,1.38
2022-08-20T04:46:01.282Z,1.38
2022-08-20T04:48:28.987Z,3.25
2022-08-20T04:50:57.402Z,4.20
2022-08-20T04:53:27.403Z,3.33
2022-08-20T04:55:57.180Z,2.83
2022-08-20T04:58:30.360Z,3.97
2022-08-20T05:01:01.363Z,1.67
2022-08-20T05:03:28.989Z,2.33
2022-08-20T05:05:56.958Z,2.20
2022-08-20T05:08:25.599Z,3.47
2022-08-20T05:10:58.061Z,1.08
2022-08-20T05:16:08.212Z,1.27
2022-08-20T05:18:35.271Z,1.58
2022-08-20T05:21:08.635Z,2.00
2022-08-20T05:23:37.813Z,2.25
2022-08-20T05:26:09.172Z,1.67
2022-08-20T05:28:57.372Z,4.80
2022-08-20T05:31:30.891Z,4.78
2022-08-20T05:34:12.429Z,2.45
2022-08-20T05:36:42.557Z,1.65
2022-08-20T05:39:10.441Z,2.55
2022-08-20T05:41:38.616Z,2.33
2022-08-20T05:44:10.019Z,4.20
2022-08-20T05:46:40.861Z,2.08
2022-08-20T05:49:10.001Z,4.18
2022-08-20T05:51:37.458Z,4.63
2022-08-20T05:54:06.026Z,3.50
2022-08-20T05:56:34.015Z,2.10
2022-08-20T05:59:05.172Z,0.73
2022-08-20T06:01:34.605Z,4.07
2022-08-20T06:04:20.025Z,3.83
2022-08-20T06:06:47.675Z,1.30
2022-08-20T06:09:30.625Z,4.13
2022-08-20T06:11:59.627Z,2.92
2022-08-20T06:14:26.690Z,2.42
2022-08-20T06:16:57.437Z,2.58
2022-08-20T06:19:27.171Z,5.43
2022-08-20T06:21:59.570Z,3.63
2022-08-20T06:24:26.992Z,2.17
2022-08-20T06:27:02.465Z,0.55
2022-08-20T06:29:30.080Z,2.15
2022-08-20T06:31:57.237Z,1.60
2022-08-20T06:36:59.378Z,3.10
2022-08-20T06:39:28.604Z,1.27
2022-08-20T06:41:58.734Z,3.17
2022-08-20T06:44:26.047Z,4.13
2022-08-20T06:49:19.409Z,1.10
2022-08-20T06:51:46.098Z,1.42
2022-08-20T06:54:18.508Z,0.57
2022-08-20T06:56:45.137Z,0.68
2022-08-20T06:59:11.988Z,0.77
2022-08-20T07:01:38.702Z,3.40
2022-08-20T07:04:07.583Z,1.23
2022-08-20T07:06:34.539Z,1.13
2022-08-20T07:09:01.272Z,0.45
2022-08-20T07:11:28.954Z,1.70
2022-08-20T07:13:59.002Z,1.15
2022-08-20T07:16:26.312Z,1.90
2022-08-20T07:21:20.116Z,1.05
2022-08-20T07:23:48.944Z,1.15
2022-08-20T07:26:15.959Z,1.38
2022-08-20T07:28:42.687Z,0.85
2022-08-20T07:31:28.008Z,1.85
2022-08-20T07:33:58.167Z,0.70
2022-08-20T07:36:27.054Z,2.38
2022-08-20T07:38:54.422Z,0.65
2022-08-20T07:41:21.530Z,2.35
2022-08-20T07:46:20.518Z,1.17
2022-08-20T07:48:50.183Z,2.88
2022-08-20T07:51:19.635Z,1.58
2022-08-20T07:53:48.255Z,1.98
2022-08-20T07:56:22.592Z,1.15
2022-08-20T07:58:55.426Z,1.73
2022-08-20T08:01:26.841Z,1.00
2022-08-20T08:03:53.739Z,2.80
2022-08-20T08:06:28.487Z,2.95
2022-08-20T08:08:59.544Z,1.17
2022-08-20T08:11:26.221Z,1.13
2022-08-20T08:13:53.088Z,2.55
2022-08-20T08:16:20.209Z,2.22
2022-08-20T08:21:18.449Z,1.55
2022-08-20T08:23:45.503Z,2.28
2022-08-20T08:28:44.719Z,3.00
2022-08-20T08:31:12.297Z,1.77
2022-08-20T08:33:40.868Z,0.50
2022-08-20T08:36:11.577Z,1.85
2022-08-20T08:38:41.432Z,0.90
2022-08-20T08:41:16.414Z,0.95
2022-08-20T08:43:46.838Z,0.93
2022-08-20T08:46:18.084Z,0.35
2022-08-20T08:48:48.348Z,2.65
2022-08-20T08:51:19.883Z,0.90
2022-08-20T08:53:55.763Z,1.83
2022-08-20T08:56:28.726Z,1.00
2022-08-20T08:59:04.478Z,1.95
2022-08-20T09:01:54.085Z,1.38
2022-08-20T09:04:23.412Z,2.83
2022-08-20T09:06:54.511Z,3.10
2022-08-20T09:09:27.182Z,1.27
2022-08-20T09:11:57.044Z,1.27
2022-08-20T09:14:26.644Z,1.02
2022-08-20T09:16:53.861Z,1.33
2022-08-20T09:19:21.725Z,1.88
2022-08-20T09:21:48.880Z,0.82
2022-08-20T09:24:15.755Z,1.38
2022-08-20T09:26:42.439Z,3.22
2022-08-20T09:29:10.044Z,3.15
2022-08-20T09:31:37.368Z,1.73
2022-08-20T09:34:05.247Z,2.17
2022-08-20T09:36:32.719Z,0.30
2022-08-20T09:39:00.628Z,0.43
2022-08-20T09:41:29.759Z,2.25
2022-08-20T09:43:56.407Z,0.93
2022-08-20T09:46:27.339Z,3.20
2022-08-20T09:48:55.242Z,1.60
2022-08-20T09:51:22.665Z,1.65
2022-08-20T09:53:49.645Z,1.42
2022-08-20T09:56:17.273Z,2.65
2022-08-20T09:58:53.407Z,2.92
2022-08-20T10:01:22.848Z,0.50
2022-08-20T10:03:50.282Z,1.20
2022-08-20T10:06:20.363Z,0.85
2022-08-20T10:08:48.694Z,1.80
2022-08-20T10:11:16.172Z,0.50
2022-08-20T10:13:45.070Z,1.75
2022-08-20T10:18:38.368Z,0.47
2022-08-20T10:21:10.672Z,1.02
2022-08-20T10:23:37.407Z,1.80
2022-08-20T10:26:04.410Z,0.57
2022-08-20T10:28:31.138Z,2.55
2022-08-20T10:30:57.766Z,1.30
2022-08-20T10:33:24.520Z,2.58
2022-08-20T10:35:51.193Z,1.65
2022-08-20T10:38:21.496Z,1.75
2022-08-20T10:40:52.590Z,2.50
2022-08-20T10:43:19.494Z,1.13
2022-08-20T10:45:46.148Z,0.73
2022-08-20T10:48:12.838Z,1.77
2022-08-20T10:50:39.536Z,2.05
2022-08-20T10:53:06.267Z,2.67
2022-08-20T10:55:32.916Z,1.23
2022-08-20T10:57:59.718Z,2.17
2022-08-20T11:00:26.485Z,2.38
2022-08-20T11:02:53.167Z,0.93
2022-08-20T11:05:19.950Z,1.25
2022-08-20T11:07:54.870Z,1.17
2022-08-20T11:10:26.024Z,0.55
2022-08-20T11:12:52.743Z,0.93
2022-08-20T11:15:19.551Z,1.45
2022-08-20T11:17:46.266Z,2.45
2022-08-20T11:20:16.939Z,1.20
2022-08-20T11:22:43.673Z,1.55
2022-08-20T11:25:10.804Z,1.75
2022-08-20T11:27:41.357Z,1.00
2022-08-20T11:30:12.037Z,0.90
2022-08-20T11:32:38.772Z,1.52
2022-08-20T11:35:24.543Z,1.05
2022-08-20T11:37:55.725Z,1.98
2022-08-20T11:40:23.410Z,0.20
2022-08-20T11:43:13.263Z,1.88
2022-08-20T11:45:37.506Z,1.33
2022-08-20T11:48:05.232Z,0.40
2022-08-20T11:50:32.463Z,1.58
2022-08-20T11:53:01.217Z,0.63
2022-08-20T11:55:30.385Z,1.40
2022-08-20T11:58:00.563Z,0.65
2022-08-20T12:00:32.945Z,0.98
2022-08-20T12:03:01.925Z,0.32
2022-08-20T12:05:30.140Z,0.50
2022-08-20T12:08:00.060Z,0.93
2022-08-20T12:10:28.178Z,2.95
2022-08-20T12:12:55.613Z,0.65
2022-08-20T12:15:22.474Z,1.45
2022-08-20T12:17:49.157Z,1.38
2022-08-20T12:20:16.574Z,1.80
2022-08-20T12:22:44.623Z,2.13
2022-08-20T12:25:12.476Z,2.28
2022-08-20T12:27:40.073Z,1.27
2022-08-20T12:30:13.649Z,2.15
2022-08-20T12:32:41.018Z,1.48
2022-08-20T12:35:09.243Z,1.15
2022-08-20T12:37:36.763Z,1.85
2022-08-20T12:40:07.460Z,2.05
2022-08-20T12:42:34.340Z,1.38
2022-08-20T12:45:01.762Z,1.67
2022-08-20T12:47:31.497Z,1.60
2022-08-20T12:50:06.120Z,2.28
2022-08-20T12:52:33.513Z,2.17
2022-08-20T12:55:00.875Z,1.10
2022-08-20T12:57:38.212Z,3.15
2022-08-20T13:00:08.838Z,0.82
2022-08-20T13:02:35.933Z,1.27
2022-08-20T13:07:33.874Z,1.65
2022-08-20T13:10:06.232Z,0.85
2022-08-20T13:12:33.044Z,1.40
2022-08-20T13:14:59.700Z,0.85
2022-08-20T13:17:38.715Z,0.80
2022-08-20T13:20:09.819Z,0.20
2022-08-20T13:22:36.821Z,0.32
2022-08-20T13:25:05.176Z,0.10
2022-08-20T13:27:32.184Z,0.13
2022-08-20T13:29:59.305Z,0.17
2022-08-20T13:32:26.475Z,0.77
2022-08-20T13:37:25.555Z,0.40
2022-08-20T13:39:56.445Z,0.20
2022-08-20T13:42:24.061Z,0.10
2022-08-20T13:44:50.734Z,0.57
2022-08-20T13:47:29.094Z,0.17
2022-08-20T13:50:16.558Z,0.10
2022-08-20T13:52:43.900Z,0.57
2022-08-20T13:55:14.079Z,0.25
2022-08-20T13:57:43.234Z,0.10
2022-08-20T14:00:13.911Z,0.28
2022-08-20T14:02:42.190Z,0.20
2022-08-20T14:05:10.657Z,0.10
2022-08-20T14:07:39.166Z,0.10
2022-08-20T14:12:40.854Z,0.30
2022-08-20T14:15:09.069Z,0.47
2022-08-20T14:17:38.470Z,0.10
2022-08-20T14:20:12.872Z,0.30
2022-08-20T14:22:39.893Z,0.10
2022-08-20T14:27:35.181Z,0.50
2022-08-20T14:30:05.014Z,0.10
2022-08-20T14:32:31.746Z,0.10
2022-08-20T14:34:59.457Z,0.25
2022-08-20T14:37:31.609Z,0.10
2022-08-20T14:39:59.959Z,0.10
2022-08-20T14:42:28.429Z,0.10
2022-08-20T14:44:59.194Z,0.10
2022-08-20T14:47:29.090Z,0.13
2022-08-20T14:49:59.648Z,0.10
2022-08-20T14:52:27.631Z,0.10
2022-08-20T14:54:55.159Z,0.10
2022-08-20T14:59:49.119Z,0.20
2022-08-20T15:02:17.329Z,0.10
2022-08-20T15:04:45.611Z,0.73
2022-08-20T15:07:35.940Z,0.32
2022-08-20T15:10:06.461Z,0.10
2022-08-20T15:12:35.281Z,0.20
2022-08-20T15:15:15.644Z,0.20
2022-08-20T15:17:49.333Z,0.38
2022-08-20T15:20:20.863Z,0.20
2022-08-20T15:22:48.867Z,0.08
2022-08-20T15:25:18.661Z,0.20
2022-08-20T15:27:45.627Z,0.25
2022-08-20T15:32:41.689Z,0.10
2022-08-20T15:35:11.317Z,0.10
2022-08-20T15:37:43.936Z,0.20
2022-08-20T15:40:15.937Z,0.10
2022-08-20T15:42:43.453Z,0.22
2022-08-20T15:45:21.663Z,0.10
2022-08-20T15:48:08.316Z,0.10
2022-08-20T15:50:52.240Z,0.20
2022-08-20T15:53:37.704Z,0.20
2022-08-20T15:57:01.905Z,0.20
2022-08-20T15:59:31.326Z,0.80
2022-08-20T16:02:03.743Z,0.10
2022-08-20T16:04:45.091Z,0.22
2022-08-20T16:07:20.644Z,0.10
2022-08-20T16:10:06.320Z,0.20
2022-08-20T16:12:36.847Z,0.40
2022-08-20T16:15:09.550Z,0.47
2022-08-20T16:17:42.631Z,2.17
2022-08-20T16:20:21.598Z,0.35
2022-08-20T16:22:48.778Z,0.47
2022-08-20T16:25:17.190Z,0.10
2022-08-20T16:28:01.706Z,0.32
2022-08-20T16:30:41.853Z,0.30
2022-08-20T16:33:31.153Z,0.15
2022-08-20T16:36:29.667Z,0.45
2022-08-20T16:39:05.092Z,0.28
2022-08-20T16:41:44.342Z,0.40
2022-08-20T16:44:17.001Z,0.10
2022-08-20T16:46:54.999Z,0.13
2022-08-20T16:49:22.986Z,0.22
2022-08-20T16:51:52.779Z,2.17
2022-08-20T16:54:28.277Z,0.20
2022-08-20T16:57:03.218Z,0.77
2022-08-20T16:59:31.446Z,0.57
2022-08-20T17:02:11.076Z,0.17
2022-08-20T17:04:59.505Z,0.30
2022-08-20T17:07:50.701Z,0.30
2022-08-20T17:10:27.338Z,0.43
2022-08-20T17:13:00.922Z,0.20
2022-08-20T17:15:31.249Z,1.27
2022-08-20T17:18:00.430Z,0.20
2022-08-20T17:20:29.051Z,1.10
2022-08-20T17:23:09.540Z,0.43
2022-08-20T17:25:39.527Z,0.47
2022-08-20T17:28:16.745Z,0.20
2022-08-20T17:30:44.284Z,0.65
2022-08-20T17:33:30.806Z,0.32
2022-08-20T17:36:01.780Z,0.20
2022-08-20T17:38:38.105Z,0.40
2022-08-20T17:41:15.286Z,0.30
2022-08-20T17:43:44.278Z,0.75
2022-08-20T17:46:16.281Z,1.00
2022-08-20T17:48:48.485Z,0.75
2022-08-20T17:51:18.580Z,0.30
2022-08-20T17:54:11.237Z,0.38
2022-08-20T17:56:42.119Z,0.55
2022-08-20T17:59:11.485Z,0.75
2022-08-20T18:01:38.158Z,0.20
2022-08-20T18:04:04.966Z,0.35
2022-08-20T18:06:44.535Z,1.13
2022-08-20T18:09:19.395Z,0.30
2022-08-20T18:11:58.599Z,0.52
2022-08-20T18:14:50.467Z,0.20
2022-08-20T18:17:41.467Z,0.85
2022-08-20T18:20:34.200Z,0.40
2022-08-20T18:23:12.358Z,0.52
2022-08-20T18:25:53.828Z,0.50
2022-08-20T18:28:26.635Z,0.60
2022-08-20T18:30:59.451Z,0.13
2022-08-20T18:33:44.400Z,0.52
2022-08-20T18:36:28.430Z,1.33
2022-08-20T18:39:09.440Z,0.40
2022-08-20T18:41:43.719Z,0.20
2022-08-20T18:44:13.956Z,0.57
2022-08-20T18:47:00.834Z,0.38
2022-08-20T18:49:34.270Z,0.20
2022-08-20T18:52:11.796Z,0.50
2022-08-20T18:54:42.476Z,0.22
2022-08-20T18:57:41.435Z,0.32
2022-08-20T19:00:21.509Z,0.47
2022-08-20T19:03:30.182Z,0.52
2022-08-20T19:06:19.556Z,0.10
2022-08-20T19:08:56.755Z,0.22
2022-08-20T19:11:55.106Z,0.47
2022-08-20T19:14:58.183Z,0.17
2022-08-20T19:17:41.963Z,0.20
2022-08-20T19:20:15.326Z,0.30
2022-08-20T19:22:43.951Z,0.45
2022-08-20T19:25:31.129Z,1.02
2022-08-20T19:28:01.973Z,0.57
2022-08-20T19:30:40.758Z,0.30
2022-08-20T19:33:08.724Z,0.30
2022-08-20T19:35:36.184Z,1.27
2022-08-20T19:38:03.063Z,0.50
2022-08-20T19:40:38.999Z,0.15
2022-08-20T19:43:12.631Z,1.80
2022-08-20T19:45:44.100Z,0.50
2022-08-20T19:48:42.874Z,0.55
2022-08-20T19:51:47.899Z,0.22
2022-08-20T19:54:20.799Z,1.13
2022-08-20T19:56:47.700Z,0.93
2022-08-20T19:59:21.009Z,0.20
2022-08-20T20:02:01.556Z,0.63
2022-08-20T20:04:41.044Z,0.80
2022-08-20T20:07:47.286Z,0.10
2022-08-20T20:10:36.691Z,0.28
2022-08-20T20:13:13.384Z,0.80
2022-08-20T20:15:40.980Z,1.10
2022-08-20T20:18:08.909Z,0.30
2022-08-20T20:20:57.061Z,0.93
2022-08-20T20:23:45.548Z,0.20
2022-08-20T20:26:17.373Z,0.63
2022-08-20T20:28:48.115Z,0.80
2022-08-20T20:31:22.733Z,0.20
2022-08-20T20:33:54.597Z,1.55
2022-08-20T20:36:41.305Z,0.75
2022-08-20T20:39:23.101Z,1.48
2022-08-20T20:41:52.508Z,0.68
2022-08-20T20:44:36.523Z,0.40
2022-08-20T20:47:07.623Z,0.68
2022-08-20T20:49:55.131Z,0.35
2022-08-20T20:52:30.560Z,0.77
2022-08-20T20:55:23.174Z,1.60
2022-08-20T20:57:51.103Z,0.50
2022-08-20T21:00:21.283Z,0.60
2022-08-20T21:02:48.448Z,0.35
2022-08-20T21:05:16.714Z,0.10
2022-08-20T21:07:56.992Z,0.30
2022-08-20T21:10:26.325Z,0.30
2022-08-20T21:12:53.618Z,0.10
2022-08-20T21:15:23.705Z,0.68
2022-08-20T21:17:51.389Z,0.28
2022-08-20T21:20:18.841Z,0.68
2022-08-20T21:22:45.539Z,0.30
2022-08-20T21:25:12.563Z,0.15
2022-08-20T21:27:49.253Z,0.63
2022-08-20T21:30:17.407Z,0.40
2022-08-20T21:32:44.040Z,0.10
2022-08-20T21:35:11.151Z,0.10
2022-08-20T21:37:38.208Z,0.17
2022-08-20T21:40:08.060Z,0.20
2022-08-20T21:42:36.883Z,0.35
2022-08-20T21:45:06.943Z,0.63
2022-08-20T21:47:33.642Z,0.22
2022-08-20T21:50:00.306Z,0.10
2022-08-20T21:52:27.125Z,0.20
2022-08-20T21:54:53.735Z,0.15
2022-08-20T21:57:25.000Z,1.02
2022-08-20T21:59:52.538Z,0.55
2022-08-20T22:02:21.198Z,0.20
2022-08-20T22:04:48.177Z,0.15
2022-08-20T22:07:21.711Z,0.30
2022-08-20T22:09:48.364Z,0.35
2022-08-20T22:12:23.450Z,0.13
2022-08-20T22:14:50.556Z,0.68
2022-08-20T22:17:17.262Z,0.10
2022-08-20T22:19:44.044Z,0.10
2022-08-20T22:22:13.173Z,0.13
2022-08-20T22:24:39.973Z,0.65
2022-08-20T22:27:08.005Z,0.30
2022-08-20T22:29:34.889Z,0.60
2022-08-20T22:32:02.362Z,0.10
2022-08-20T22:34:32.176Z,0.10
2022-08-20T22:37:00.497Z,0.38
2022-08-20T22:39:27.326Z,0.30
2022-08-20T22:41:54.113Z,0.95
2022-08-20T22:44:20.959Z,0.10
2022-08-20T22:46:50.586Z,1.30
2022-08-20T22:49:23.917Z,0.10
2022-08-20T22:51:50.752Z,0.38
2022-08-20T22:54:22.145Z,0.20
2022-08-20T22:56:51.144Z,1.20
2022-08-20T22:59:21.412Z,0.10
2022-08-20T23:01:50.372Z,0.10
2022-08-20T23:04:23.274Z,0.20
2022-08-20T23:06:50.470Z,0.20
2022-08-20T23:09:20.885Z,0.35
2022-08-20T23:11:48.892Z,0.77
2022-08-20T23:14:16.808Z,0.10
2022-08-20T23:16:46.837Z,0.20
2022-08-20T23:19:21.464Z,0.98
2022-08-20T23:21:52.126Z,0.10
2022-08-20T23:24:19.934Z,0.35
2022-08-20T23:26:53.073Z,0.25
2022-08-20T23:29:22.628Z,0.30
2022-08-20T23:31:53.616Z,0.35
2022-08-20T23:34:20.236Z,0.30
2022-08-20T23:36:47.360Z,1.45
2022-08-20T23:39:14.198Z,0.22
2022-08-20T23:41:47.604Z,0.28
2022-08-20T23:44:26.655Z,0.90
2022-08-20T23:46:56.760Z,0.55
2022-08-20T23:49:23.723Z,0.45
2022-08-20T23:51:50.509Z,0.73
2022-08-20T23:54:17.201Z,0.63
2022-08-20T23:56:43.961Z,0.10
2022-08-20T23:59:10.616Z,0.10
